Boston, Texas
Current Conditions -  °F | °C
As of 4:53 PM on Saturday 20 Dec 2014 (Local Time) from KTXK Reporting Station
Overcast Overcast  
Wind Chill: 50°   Ceiling: 4000
Heat Index: 50°   Visibility: 9mi
Dew Point: 42°   Wind: 6mph
Humidity: 74%   Direction: 350°N
Pressure: 30.2"   Gusts: NA
Location:  33.4799°N, 94.4582°W
Report Text: KTXK 202253Z 35005KT 9SM OVC040 10/06 A3020 RMK AO2 SLP227 T01000056
Loading
Personal Weather Stations






























Interactive Weather Map New forecast layout! Learn more

10-Day Weather Forecast

Advertisements
Track Severe Weather on mobile